createdAt,value
2022-11-23T00:01:36.979Z,-1.65
2022-11-23T00:04:07.213Z,-1.47
2022-11-23T00:06:35.803Z,-1.28
2022-11-23T00:09:04.531Z,-1.42
2022-11-23T00:11:35.746Z,-1.40
2022-11-23T00:14:04.771Z,-1.34
2022-11-23T00:16:34.522Z,-1.49
2022-11-23T00:19:03.679Z,-1.41
2022-11-23T00:21:33.889Z,-1.57
2022-11-23T00:24:02.348Z,-1.28
2022-11-23T00:26:31.157Z,-1.54
2022-11-23T00:29:00.227Z,-1.40
2022-11-23T00:31:29.078Z,-1.27
2022-11-23T00:33:59.491Z,-1.12
2022-11-23T00:36:29.271Z,-1.25
2022-11-23T00:38:58.910Z,-1.38
2022-11-23T00:41:28.999Z,-1.38
2022-11-23T00:43:57.504Z,-1.45
2022-11-23T00:46:27.377Z,-1.42
2022-11-23T00:48:58.543Z,-1.36
2022-11-23T00:51:29.777Z,-1.43
2022-11-23T00:53:59.744Z,-1.46
2022-11-23T00:56:29.508Z,-1.55
2022-11-23T00:58:59.531Z,-1.78
2022-11-23T01:01:30.874Z,-1.71
2022-11-23T01:04:02.840Z,-1.73
2022-11-23T01:06:33.316Z,-1.83
2022-11-23T01:09:03.667Z,-1.88
2022-11-23T01:11:33.414Z,-1.82
2022-11-23T01:14:03.109Z,-1.67
2022-11-23T01:16:32.882Z,-2.07
2022-11-23T01:19:04.966Z,-1.68
2022-11-23T01:21:34.711Z,-1.93
2022-11-23T01:24:08.736Z,-1.65
2022-11-23T01:26:40.365Z,-1.73
2022-11-23T01:29:09.279Z,-1.65
2022-11-23T01:31:46.091Z,-1.53
2022-11-23T01:34:19.737Z,-1.62
2022-11-23T01:36:48.243Z,-1.38
2022-11-23T01:39:17.005Z,-1.58
2022-11-23T01:41:46.552Z,-1.67
2022-11-23T01:44:26.314Z,-1.44
2022-11-23T01:46:55.371Z,-1.46
2022-11-23T01:49:25.863Z,-1.42
2022-11-23T01:51:56.531Z,-1.56
2022-11-23T01:54:28.423Z,-1.50
2022-11-23T01:56:59.866Z,-1.69
2022-11-23T01:59:30.443Z,-1.80
2022-11-23T02:02:00.779Z,-1.73
2022-11-23T02:04:33.353Z,-1.46
2022-11-23T02:07:03.127Z,-1.59
2022-11-23T02:09:33.224Z,-1.50
2022-11-23T02:12:02.386Z,-1.73
2022-11-23T02:14:31.539Z,-1.65
2022-11-23T02:17:00.581Z,-1.68
2022-11-23T02:19:37.812Z,-1.68
2022-11-23T02:22:07.735Z,-1.95
2022-11-23T02:24:40.251Z,-2.28
2022-11-23T02:27:14.766Z,-2.17
2022-11-23T02:29:43.620Z,-2.10
2022-11-23T02:32:12.304Z,-1.91
2022-11-23T02:34:40.619Z,-2.30
2022-11-23T02:37:10.055Z,-1.89
2022-11-23T02:39:40.021Z,-2.02
2022-11-23T02:42:08.840Z,-2.55
2022-11-23T02:44:44.083Z,-2.15
2022-11-23T02:47:14.560Z,-2.02
2022-11-23T02:49:43.847Z,-2.24
2022-11-23T02:52:12.481Z,-1.92
2022-11-23T02:54:41.392Z,-2.47
2022-11-23T02:57:10.232Z,-1.99
2022-11-23T02:59:42.537Z,-2.27
2022-11-23T03:02:11.355Z,-2.17
2022-11-23T03:04:39.619Z,-2.20
2022-11-23T03:07:09.132Z,-1.84
2022-11-23T03:09:37.980Z,-1.88
2022-11-23T03:12:08.177Z,-1.85
2022-11-23T03:14:38.800Z,-2.00
2022-11-23T03:17:09.089Z,-1.90
2022-11-23T03:19:42.781Z,-1.74
2022-11-23T03:22:13.056Z,-1.70
2022-11-23T03:24:41.828Z,-1.80
2022-11-23T03:27:14.807Z,-1.93
2022-11-23T03:29:44.646Z,-2.05
2022-11-23T03:32:20.091Z,-1.89
2022-11-23T03:34:51.929Z,-2.07
2022-11-23T03:37:22.284Z,-1.98
2022-11-23T03:39:50.963Z,-2.05
2022-11-23T03:42:45.653Z,-1.86
2022-11-23T03:45:14.387Z,-1.99
2022-11-23T03:47:45.380Z,-1.93
2022-11-23T03:50:14.926Z,-2.06
2022-11-23T03:52:44.155Z,-1.95
2022-11-23T03:55:16.761Z,-1.92
2022-11-23T03:57:45.435Z,-2.35
2022-11-23T04:00:15.211Z,-2.18
2022-11-23T04:02:47.473Z,-2.24
2022-11-23T04:05:36.090Z,-2.08
2022-11-23T04:08:33.844Z,-2.02
2022-11-23T04:11:02.604Z,-1.93
2022-11-23T04:13:38.776Z,-2.17
2022-11-23T04:16:08.397Z,-1.97
2022-11-23T04:18:38.886Z,-1.76
2022-11-23T04:21:07.607Z,-1.90
2022-11-23T04:23:36.626Z,-1.94
2022-11-23T04:26:07.304Z,-1.91
2022-11-23T04:28:36.482Z,-1.85
2022-11-23T04:31:05.338Z,-1.85
2022-11-23T04:33:45.368Z,-1.92
2022-11-23T04:36:16.321Z,-1.98
2022-11-23T04:38:45.088Z,-1.96
2022-11-23T04:41:17.484Z,-1.83
2022-11-23T04:43:46.300Z,-2.00
2022-11-23T04:46:15.227Z,-1.76
2022-11-23T04:48:47.260Z,-1.68
2022-11-23T04:51:18.169Z,-1.78
2022-11-23T04:53:47.531Z,-1.69
2022-11-23T04:56:16.277Z,-1.72
2022-11-23T04:58:45.404Z,-1.66
2022-11-23T05:01:14.228Z,-1.59
2022-11-23T05:04:04.597Z,-1.62
2022-11-23T05:06:33.086Z,-1.71
2022-11-23T05:09:01.831Z,-1.78
2022-11-23T05:11:43.131Z,-1.92
2022-11-23T05:14:12.789Z,-1.89
2022-11-23T05:16:41.671Z,-2.11
2022-11-23T05:19:12.509Z,-2.02
2022-11-23T05:21:41.268Z,-2.04
2022-11-23T05:24:10.124Z,-1.92
2022-11-23T05:26:44.907Z,-2.00
2022-11-23T05:29:13.744Z,-1.94
2022-11-23T05:31:42.336Z,-1.84
2022-11-23T05:34:12.651Z,-1.67
2022-11-23T05:36:47.683Z,-1.98
2022-11-23T05:39:17.448Z,-1.91
2022-11-23T05:41:46.882Z,-1.98
2022-11-23T05:44:30.293Z,-2.20
2022-11-23T05:46:59.795Z,-1.93
2022-11-23T05:49:32.742Z,-1.90
2022-11-23T05:52:02.990Z,-2.06
2022-11-23T05:54:32.920Z,-1.92
2022-11-23T05:57:15.899Z,-1.97
2022-11-23T05:59:46.299Z,-1.92
2022-11-23T06:02:21.904Z,-2.18
2022-11-23T06:04:56.058Z,-2.07
2022-11-23T06:07:37.098Z,-1.83
2022-11-23T06:10:14.862Z,-1.74
2022-11-23T06:12:50.094Z,-1.81
2022-11-23T06:15:20.444Z,-1.81
2022-11-23T06:17:50.020Z,-1.80
2022-11-23T06:20:23.704Z,-1.73
2022-11-23T06:23:03.551Z,-1.89
2022-11-23T06:25:32.222Z,-1.90
2022-11-23T06:28:06.942Z,-1.95
2022-11-23T06:30:43.863Z,-1.84
2022-11-23T06:33:13.969Z,-1.80
2022-11-23T06:35:55.553Z,-1.91
2022-11-23T06:38:26.085Z,-1.95
2022-11-23T06:41:08.078Z,-1.95
2022-11-23T06:43:36.921Z,-1.90
2022-11-23T06:46:06.948Z,-1.97
2022-11-23T06:48:39.569Z,-2.13
2022-11-23T06:51:12.297Z,-2.14
2022-11-23T06:53:41.258Z,-2.05
2022-11-23T06:56:11.225Z,-1.87
2022-11-23T06:58:40.395Z,-2.05
2022-11-23T07:01:13.995Z,-2.00
2022-11-23T07:03:49.123Z,-2.05
2022-11-23T07:06:29.233Z,-1.92
2022-11-23T07:09:02.959Z,-1.92
2022-11-23T07:11:46.969Z,-2.10
2022-11-23T07:14:18.160Z,-1.92
2022-11-23T07:16:49.031Z,-1.88
2022-11-23T07:19:17.911Z,-1.91
2022-11-23T07:21:49.510Z,-2.01
2022-11-23T07:24:19.062Z,-2.09
2022-11-23T07:26:47.721Z,-2.47
2022-11-23T07:29:16.444Z,-2.34
2022-11-23T07:31:44.737Z,-2.19
2022-11-23T07:34:13.594Z,-2.03
2022-11-23T07:36:43.449Z,-1.69
2022-11-23T07:39:14.525Z,-1.92
2022-11-23T07:41:43.396Z,-2.04
2022-11-23T07:44:23.253Z,-2.08
2022-11-23T07:46:54.637Z,-1.96
2022-11-23T07:49:23.483Z,-2.02
2022-11-23T07:51:53.780Z,-2.08
2022-11-23T07:54:24.032Z,-1.96
2022-11-23T07:56:52.875Z,-2.17
2022-11-23T07:59:21.604Z,-2.12
2022-11-23T08:01:54.287Z,-2.05
2022-11-23T08:04:26.964Z,-1.99
2022-11-23T08:06:55.749Z,-2.08
2022-11-23T08:09:25.831Z,-1.84
2022-11-23T08:11:54.520Z,-1.91
2022-11-23T08:14:23.867Z,-1.95
2022-11-23T08:16:52.662Z,-2.04
2022-11-23T08:19:21.317Z,-2.13
2022-11-23T08:21:50.076Z,-2.13
2022-11-23T08:24:18.661Z,-2.15
2022-11-23T08:26:48.820Z,-2.06
2022-11-23T08:29:17.598Z,-1.98
2022-11-23T08:31:45.858Z,-1.85
2022-11-23T08:34:15.340Z,-1.81
2022-11-23T08:36:44.031Z,-1.83
2022-11-23T08:39:14.878Z,-1.92
2022-11-23T08:41:43.816Z,-1.96
2022-11-23T08:44:14.187Z,-1.76
2022-11-23T08:46:42.572Z,-1.95
2022-11-23T08:49:11.302Z,-1.94
2022-11-23T08:51:40.008Z,-2.05
2022-11-23T08:54:09.397Z,-1.77
2022-11-23T08:56:38.339Z,-1.73
2022-11-23T08:59:07.100Z,-1.38
2022-11-23T09:01:37.054Z,-1.47
2022-11-23T09:04:06.095Z,-1.66
2022-11-23T09:06:34.988Z,-1.58
2022-11-23T09:09:03.916Z,-1.55
2022-11-23T09:11:32.636Z,-1.57
2022-11-23T09:14:01.336Z,-1.70
2022-11-23T09:16:33.696Z,-1.74
2022-11-23T09:19:04.321Z,-1.51
2022-11-23T09:21:35.840Z,-1.52
2022-11-23T09:24:04.816Z,-1.55
2022-11-23T09:26:34.321Z,-1.28
2022-11-23T09:29:03.003Z,-1.32
2022-11-23T09:31:31.305Z,-1.22
2022-11-23T09:34:00.196Z,-1.29
2022-11-23T09:36:30.213Z,-1.12
2022-11-23T09:38:59.004Z,-1.42
2022-11-23T09:41:50.761Z,-1.35
2022-11-23T09:44:24.791Z,-1.39
2022-11-23T09:47:05.468Z,-1.51
2022-11-23T09:49:39.054Z,-1.37
2022-11-23T09:52:16.881Z,-1.30
2022-11-23T09:54:47.342Z,-1.27
2022-11-23T09:57:19.380Z,-1.27
2022-11-23T09:59:52.109Z,-1.43
2022-11-23T10:02:23.647Z,-1.29
2022-11-23T10:04:53.406Z,-1.25
2022-11-23T10:07:36.851Z,-1.42
2022-11-23T10:10:12.353Z,-1.44
2022-11-23T10:12:48.535Z,-1.28
2022-11-23T10:15:21.943Z,-1.30
2022-11-23T10:18:06.863Z,-0.78
2022-11-23T10:20:44.378Z,-0.81
2022-11-23T10:23:19.685Z,-1.09
2022-11-23T10:25:50.248Z,-1.00
2022-11-23T10:28:20.844Z,-1.05
2022-11-23T10:30:55.355Z,-1.48
2022-11-23T10:33:30.042Z,-1.44
2022-11-23T10:35:58.805Z,-1.38
2022-11-23T10:38:29.652Z,-1.24
2022-11-23T10:41:03.628Z,-1.27
2022-11-23T10:43:36.622Z,-1.23
2022-11-23T10:46:26.589Z,-1.24
2022-11-23T10:48:56.028Z,-1.36
2022-11-23T10:51:29.607Z,-1.38
2022-11-23T10:54:05.388Z,-1.31
2022-11-23T10:56:35.358Z,-1.72
2022-11-23T10:59:04.038Z,-1.49
2022-11-23T11:01:32.393Z,-1.67
2022-11-23T11:04:04.188Z,-1.68
2022-11-23T11:06:36.341Z,-1.23
2022-11-23T11:09:13.321Z,-1.22
2022-11-23T11:11:47.437Z,-0.94
2022-11-23T11:14:17.460Z,-1.17
2022-11-23T11:16:49.595Z,-1.06
2022-11-23T11:19:28.548Z,-0.98
2022-11-23T11:21:57.822Z,-1.21
2022-11-23T11:24:33.302Z,-1.43
2022-11-23T11:27:04.329Z,-1.20
2022-11-23T11:29:39.133Z,-1.11
2022-11-23T11:32:11.851Z,-1.12
2022-11-23T11:34:44.166Z,-1.02
2022-11-23T11:37:16.522Z,-1.10
2022-11-23T11:39:50.095Z,-1.04
2022-11-23T11:42:21.440Z,-1.17
2022-11-23T11:44:52.447Z,-1.49
2022-11-23T11:47:29.357Z,-1.17
2022-11-23T11:49:59.593Z,-1.34
2022-11-23T11:52:33.396Z,-1.09
2022-11-23T11:55:08.705Z,-0.95
2022-11-23T11:57:40.700Z,-0.80
2022-11-23T12:00:15.400Z,-0.56
2022-11-23T12:02:51.343Z,-0.61
2022-11-23T12:05:25.476Z,-0.44
2022-11-23T12:08:01.452Z,-0.76
2022-11-23T12:10:35.531Z,-1.27
2022-11-23T12:13:04.380Z,-1.90
2022-11-23T12:15:51.307Z,-1.47
2022-11-23T12:18:49.544Z,-1.56
2022-11-23T12:21:40.797Z,-1.61
2022-11-23T12:24:17.317Z,-1.83
2022-11-23T12:26:57.635Z,-1.79
2022-11-23T12:29:40.894Z,-1.57
2022-11-23T12:32:17.013Z,-1.80
2022-11-23T12:35:02.793Z,-1.92
2022-11-23T12:37:41.059Z,-1.68
2022-11-23T12:40:31.989Z,-2.01
2022-11-23T12:43:07.683Z,-2.41
2022-11-23T12:45:57.794Z,-2.18
2022-11-23T12:48:40.571Z,-2.10
2022-11-23T12:51:19.203Z,-1.96
2022-11-23T12:53:53.136Z,-1.72
2022-11-23T12:56:39.074Z,-1.60
2022-11-23T12:59:13.714Z,-1.61
2022-11-23T13:01:44.750Z,-1.62
2022-11-23T13:04:48.104Z,-1.50
2022-11-23T13:07:59.729Z,-1.59
2022-11-23T13:10:39.103Z,-1.59
2022-11-23T13:13:26.513Z,-1.45
2022-11-23T13:16:36.123Z,-1.25
2022-11-23T13:19:16.087Z,-1.39
2022-11-23T13:21:48.679Z,-1.46
2022-11-23T13:24:28.852Z,-1.56
2022-11-23T13:27:16.158Z,-1.39
2022-11-23T13:29:49.765Z,-1.35
2022-11-23T13:32:51.440Z,-1.65
2022-11-23T13:36:11.362Z,-1.58
2022-11-23T13:38:44.627Z,-1.63
2022-11-23T13:41:46.671Z,-1.69
2022-11-23T13:44:23.314Z,-1.66
2022-11-23T13:47:02.472Z,-1.83
2022-11-23T13:49:35.789Z,-1.85
2022-11-23T13:52:31.956Z,-1.69
2022-11-23T13:55:09.322Z,-1.66
2022-11-23T13:57:39.499Z,-1.91
2022-11-23T14:00:45.373Z,-1.80
2022-11-23T14:03:48.548Z,-1.89
2022-11-23T14:06:43.030Z,-1.69
2022-11-23T14:09:16.054Z,-1.74
2022-11-23T14:11:54.357Z,-1.76
2022-11-23T14:14:26.559Z,-1.79
2022-11-23T14:17:32.670Z,-1.83
2022-11-23T14:20:21.507Z,-1.71
2022-11-23T14:23:02.409Z,-1.76
2022-11-23T14:25:39.999Z,-1.70
2022-11-23T14:28:18.070Z,-1.87
2022-11-23T14:30:56.342Z,-1.62
2022-11-23T14:33:30.950Z,-1.60
2022-11-23T14:36:08.010Z,-1.82
2022-11-23T14:39:17.273Z,-1.83
2022-11-23T14:41:47.312Z,-2.18
2022-11-23T14:44:16.384Z,-2.02
2022-11-23T14:47:02.814Z,-1.93
2022-11-23T14:49:31.928Z,-2.01
2022-11-23T14:52:01.281Z,-2.04
2022-11-23T14:54:32.463Z,-1.91
2022-11-23T14:57:04.116Z,-1.97
2022-11-23T14:59:35.302Z,-2.02
2022-11-23T15:02:06.642Z,-1.98
2022-11-23T15:04:38.662Z,-2.02
2022-11-23T15:07:12.311Z,-2.01
2022-11-23T15:09:48.139Z,-2.09
2022-11-23T15:12:24.913Z,-1.90
2022-11-23T15:14:57.374Z,-2.00
2022-11-23T15:17:26.810Z,-1.97
2022-11-23T15:19:56.388Z,-2.08
2022-11-23T15:22:26.823Z,-2.25
2022-11-23T15:25:07.207Z,-2.15
2022-11-23T15:27:40.354Z,-2.27
2022-11-23T15:30:17.334Z,-2.19
2022-11-23T15:32:46.199Z,-2.27
2022-11-23T15:35:16.150Z,-2.07
2022-11-23T15:37:47.623Z,-2.15
2022-11-23T15:40:20.397Z,-2.24
2022-11-23T15:42:51.349Z,-2.00
2022-11-23T15:45:40.322Z,-2.08
2022-11-23T15:48:14.555Z,-2.22
2022-11-23T15:50:50.748Z,-2.16
2022-11-23T15:53:19.865Z,-2.22
2022-11-23T15:55:50.755Z,-2.22
2022-11-23T15:58:21.442Z,-2.15
2022-11-23T16:00:52.400Z,-2.16
2022-11-23T16:03:36.334Z,-2.24
2022-11-23T16:06:26.937Z,-2.32
2022-11-23T16:08:55.764Z,-2.36
2022-11-23T16:11:31.696Z,-2.47
2022-11-23T16:14:18.674Z,-2.48
2022-11-23T16:16:48.388Z,-2.44
2022-11-23T16:19:29.342Z,-2.64
2022-11-23T16:22:02.540Z,-2.43
2022-11-23T16:24:33.747Z,-2.31
2022-11-23T16:27:13.482Z,-2.26
2022-11-23T16:29:42.363Z,-2.41
2022-11-23T16:32:23.353Z,-2.20
2022-11-23T16:34:51.756Z,-2.49
2022-11-23T16:37:20.935Z,-2.50
2022-11-23T16:39:50.117Z,-2.35
2022-11-23T16:42:20.423Z,-2.36
2022-11-23T16:44:49.319Z,-2.26
2022-11-23T16:47:26.316Z,-2.18
2022-11-23T16:49:55.536Z,-2.33
2022-11-23T16:52:25.066Z,-2.39
2022-11-23T16:54:54.021Z,-2.36
2022-11-23T16:57:30.204Z,-2.30
2022-11-23T16:59:59.618Z,-2.49
2022-11-23T17:02:28.483Z,-2.49
2022-11-23T17:04:57.052Z,-2.50
2022-11-23T17:07:25.975Z,-2.45
2022-11-23T17:09:54.695Z,-2.31
2022-11-23T17:12:23.513Z,-2.31
2022-11-23T17:14:53.655Z,-2.28
2022-11-23T17:17:23.710Z,-2.42
2022-11-23T17:19:52.715Z,-2.41
2022-11-23T17:22:21.970Z,-2.43
2022-11-23T17:24:53.373Z,-2.32
2022-11-23T17:27:24.325Z,-2.34
2022-11-23T17:29:58.548Z,-2.47
2022-11-23T17:32:27.316Z,-2.67
2022-11-23T17:34:55.892Z,-2.68
2022-11-23T17:37:25.489Z,-2.64
2022-11-23T17:39:54.457Z,-2.76
2022-11-23T17:42:23.147Z,-2.78
2022-11-23T17:44:51.960Z,-2.71
2022-11-23T17:47:26.123Z,-2.62
2022-11-23T17:49:54.646Z,-2.77
2022-11-23T17:52:24.066Z,-2.92
2022-11-23T17:54:52.873Z,-2.77
2022-11-23T17:57:24.484Z,-2.71
2022-11-23T17:59:53.894Z,-2.85
2022-11-23T18:02:23.950Z,-2.78
2022-11-23T18:04:52.392Z,-2.97
2022-11-23T18:07:21.304Z,-3.10
2022-11-23T18:09:50.508Z,-2.94
2022-11-23T18:12:19.420Z,-3.21
2022-11-23T18:14:48.443Z,-3.02
2022-11-23T18:17:17.301Z,-2.98
2022-11-23T18:19:47.183Z,-2.86
2022-11-23T18:22:15.630Z,-2.89
2022-11-23T18:24:44.864Z,-2.96
2022-11-23T18:27:13.851Z,-3.00
2022-11-23T18:29:42.698Z,-2.94
2022-11-23T18:32:11.474Z,-2.73
2022-11-23T18:34:39.846Z,-3.05
2022-11-23T18:37:10.133Z,-2.89
2022-11-23T18:39:38.535Z,-2.60
2022-11-23T18:42:07.259Z,-2.84
2022-11-23T18:44:35.882Z,-2.62
2022-11-23T18:47:04.616Z,-2.61
2022-11-23T18:49:33.190Z,-2.69
2022-11-23T18:52:02.045Z,-2.57
2022-11-23T18:54:32.165Z,-2.53
2022-11-23T18:57:00.888Z,-2.57
2022-11-23T18:59:56.254Z,-2.69
2022-11-23T19:02:18.267Z,-2.60
2022-11-23T19:04:46.715Z,-2.60
2022-11-23T19:07:15.741Z,-2.56
2022-11-23T19:09:48.931Z,-2.53
2022-11-23T19:12:17.841Z,-2.76
2022-11-23T19:14:49.809Z,-2.96
2022-11-23T19:17:18.796Z,-2.86
2022-11-23T19:19:47.244Z,-3.10
2022-11-23T19:22:16.190Z,-3.02
2022-11-23T19:24:45.271Z,-2.90
2022-11-23T19:27:15.468Z,-2.75
2022-11-23T19:29:44.160Z,-2.55
2022-11-23T19:32:12.974Z,-2.82
2022-11-23T19:34:41.364Z,-2.83
2022-11-23T19:37:10.126Z,-2.90
2022-11-23T19:39:38.886Z,-2.81
2022-11-23T19:42:07.706Z,-3.09
2022-11-23T19:44:37.806Z,-2.82
2022-11-23T19:47:13.687Z,-2.69
2022-11-23T19:49:43.882Z,-3.12
2022-11-23T19:52:12.650Z,-3.05
2022-11-23T19:54:41.362Z,-2.93
2022-11-23T19:57:10.088Z,-2.91
2022-11-23T19:59:40.355Z,-2.86
2022-11-23T20:02:09.941Z,-2.65
2022-11-23T20:04:38.285Z,-3.05
2022-11-23T20:07:07.202Z,-2.91
2022-11-23T20:09:36.074Z,-2.98
2022-11-23T20:12:05.260Z,-2.99
2022-11-23T20:14:33.939Z,-3.30
2022-11-23T20:17:04.017Z,-3.09
2022-11-23T20:19:32.660Z,-3.02
2022-11-23T20:22:01.619Z,-3.17
2022-11-23T20:24:30.428Z,-3.27
2022-11-23T20:26:59.072Z,-3.15
2022-11-23T20:29:28.138Z,-3.21
2022-11-23T20:31:56.544Z,-3.11
2022-11-23T20:34:27.492Z,-3.01
2022-11-23T20:36:56.221Z,-3.01
2022-11-23T20:39:24.903Z,-2.96
2022-11-23T20:41:53.647Z,-2.89
2022-11-23T20:44:24.449Z,-2.79
2022-11-23T20:47:03.285Z,-2.84
2022-11-23T20:49:33.850Z,-3.00
2022-11-23T20:52:02.997Z,-2.74
2022-11-23T20:54:32.264Z,-2.93
2022-11-23T20:57:01.330Z,-3.00
2022-11-23T20:59:30.224Z,-3.07
2022-11-23T21:01:59.125Z,-3.15
2022-11-23T21:04:27.638Z,-3.13
2022-11-23T21:06:58.031Z,-3.08
2022-11-23T21:09:26.743Z,-3.13
2022-11-23T21:12:12.951Z,-3.09
2022-11-23T21:14:41.743Z,-3.33
2022-11-23T21:17:10.531Z,-3.28
2022-11-23T21:19:40.950Z,-3.36
2022-11-23T21:22:12.821Z,-3.20
2022-11-23T21:24:42.225Z,-3.09
2022-11-23T21:27:13.841Z,-3.15
2022-11-23T21:29:44.192Z,-3.26
2022-11-23T21:32:14.882Z,-3.14
2022-11-23T21:34:43.270Z,-3.23
2022-11-23T21:37:13.865Z,-3.42
2022-11-23T21:39:44.635Z,-3.27
2022-11-23T21:42:17.032Z,-3.18
2022-11-23T21:44:45.940Z,-3.32
2022-11-23T21:47:14.725Z,-3.48
2022-11-23T21:49:43.060Z,-3.55
2022-11-23T21:52:13.324Z,-3.43
2022-11-23T21:54:47.315Z,-3.23
2022-11-23T21:57:17.778Z,-3.39
2022-11-23T21:59:46.615Z,-3.26
2022-11-23T22:02:15.448Z,-3.33
2022-11-23T22:04:44.041Z,-3.39
2022-11-23T22:07:14.228Z,-3.25
2022-11-23T22:09:42.616Z,-3.11
2022-11-23T22:12:11.265Z,-3.24
2022-11-23T22:14:39.953Z,-3.36
2022-11-23T22:17:08.595Z,-3.23
2022-11-23T22:19:36.994Z,-3.26
2022-11-23T22:22:07.543Z,-3.25
2022-11-23T22:24:38.199Z,-3.32
2022-11-23T22:27:06.891Z,-3.30
2022-11-23T22:29:35.770Z,-3.22
2022-11-23T22:32:04.534Z,-3.21
2022-11-23T22:34:33.640Z,-3.33
2022-11-23T22:37:07.233Z,-3.48
2022-11-23T22:39:40.701Z,-3.62
2022-11-23T22:42:09.278Z,-3.27
2022-11-23T22:44:39.576Z,-3.42
2022-11-23T22:47:08.338Z,-3.36
2022-11-23T22:49:37.031Z,-3.60
2022-11-23T22:52:06.079Z,-3.57
2022-11-23T22:54:35.075Z,-3.48
2022-11-23T22:57:05.379Z,-3.54
2022-11-23T22:59:34.270Z,-3.43
2022-11-23T23:02:03.161Z,-3.51
2022-11-23T23:04:31.832Z,-3.38
2022-11-23T23:07:00.985Z,-3.44
2022-11-23T23:09:29.834Z,-3.56
2022-11-23T23:11:58.692Z,-3.49
2022-11-23T23:14:28.870Z,-3.41
2022-11-23T23:16:57.322Z,-3.53
2022-11-23T23:19:26.031Z,-3.48
2022-11-23T23:21:54.739Z,-3.60
2022-11-23T23:24:23.517Z,-3.38
2022-11-23T23:26:52.344Z,-3.46
2022-11-23T23:29:21.078Z,-3.39
2022-11-23T23:31:51.099Z,-3.22
2022-11-23T23:34:19.964Z,-3.16
2022-11-23T23:36:48.666Z,-3.27
2022-11-23T23:39:17.535Z,-3.32
2022-11-23T23:41:46.414Z,-3.36
2022-11-23T23:44:15.288Z,-3.20
2022-11-23T23:46:44.693Z,-3.14
2022-11-23T23:49:14.817Z,-3.05
2022-11-23T23:51:46.451Z,-2.81
2022-11-23T23:54:17.596Z,-3.03
2022-11-23T23:56:46.341Z,-2.88
2022-11-23T23:59:15.206Z,-2.90
